Terminal Aerodrome Forecast
Issued by NWS Boise, ID

Home | Current Version | Previous Version | Text Only | Print | Product List | Glossary On
Versions: 1 2 3 4 5 6 7 8 9 10 11 12 13 14 15 16 17 18
000
FTUS45 KBOI 051133
TAFBNO
TAF
KBNO 051133Z 0512/0612 VRB06KT P6SM SCT200
     FM060000 VRB06KT P6SM VCSH BKN050
     FM060600 VRB04KT 1SM -SN BR OVC015=

USA.gov is the U.S. government's official web portal to all federal, state and local government web resources and services.